Time,TemperatureF,DewpointF,PressureIn,WindDirection,WindDirectionDegrees,WindSpeedMPH,WindSpeedGustMPH,Humidity,HourlyPrecipIn,Conditions,Clouds,dailyrainin,SolarRadiationWatts/m^2,SoftwareType,DateUTC
2013-06-15 00:12:00,68.4,62.0,30.02,NNE,26,0.0,3.0,81,0.00,,,0.00,0,weatherlink.com 1.10,2013-06-15 05:12:00,
2013-06-15 00:27:00,68.7,62.0,30.03,NNE,26,0.0,1.0,79,0.00,,,0.00,0,weatherlink.com 1.10,2013-06-15 05:27:00,
2013-06-15 00:41:00,68.6,62.0,30.02,NNE,26,0.0,0.0,79,0.00,,,0.00,0,weatherlink.com 1.10,2013-06-15 05:41:00,
2013-06-15 00:57:00,68.3,62.0,30.01,NNE,26,0.0,1.0,79,0.00,,,0.00,0,weatherlink.com 1.10,2013-06-15 05:57:00,
2013-06-15 01:12:00,68.5,62.0,30.01,NNE,26,0.0,1.0,80,0.00,,,0.00,0,weatherlink.com 1.10,2013-06-15 06:12:00,
2013-06-15 01:27:00,68.0,62.0,30.00,NNE,26,0.0,0.0,80,0.00,,,0.00,0,weatherlink.com 1.10,2013-06-15 06:27:00,
2013-06-15 01:41:00,67.4,62.0,30.02,NNE,26,0.0,1.0,82,0.00,,,0.00,0,weatherlink.com 1.10,2013-06-15 06:41:00,
2013-06-15 01:57:00,67.0,61.0,30.01,NNE,26,0.0,0.0,82,0.00,,,0.00,0,weatherlink.com 1.10,2013-06-15 06:57:00,
2013-06-15 02:12:00,66.3,62.0,30.02,NNE,26,0.0,0.0,85,0.00,,,0.00,0,weatherlink.com 1.10,2013-06-15 07:12:00,
2013-06-15 02:27:00,66.0,61.0,30.02,NNE,26,0.0,0.0,85,0.00,,,0.00,0,weatherlink.com 1.10,2013-06-15 07:27:00,
2013-06-15 02:42:00,65.1,61.0,30.02,NNE,26,0.0,0.0,87,0.00,,,0.00,0,weatherlink.com 1.10,2013-06-15 07:42:00,
2013-06-15 02:57:00,65.0,62.0,30.02,NNE,26,0.0,0.0,89,0.00,,,0.00,0,weatherlink.com 1.10,2013-06-15 07:57:00,
2013-06-15 03:12:00,64.5,61.0,30.01,NNE,26,0.0,0.0,89,0.00,,,0.00,0,weatherlink.com 1.10,2013-06-15 08:12:00,
2013-06-15 03:27:00,64.1,62.0,30.01,NNE,26,0.0,0.0,91,0.00,,,0.00,0,weatherlink.com 1.10,2013-06-15 08:27:00,
2013-06-15 03:43:00,63.7,61.0,30.01,NNE,26,0.0,0.0,92,0.00,,,0.00,0,weatherlink.com 1.10,2013-06-15 08:43:00,
2013-06-15 03:57:00,63.5,61.0,30.01,NNE,26,0.0,0.0,91,0.00,,,0.00,0,weatherlink.com 1.10,2013-06-15 08:57:00,
2013-06-15 04:13:00,63.4,61.0,30.01,NNE,26,0.0,1.0,92,0.00,,,0.00,0,weatherlink.com 1.10,2013-06-15 09:13:00,
2013-06-15 04:28:00,63.2,61.0,30.01,NNE,26,0.0,0.0,92,0.00,,,0.00,0,weatherlink.com 1.10,2013-06-15 09:28:00,
2013-06-15 04:43:00,63.3,61.0,30.01,NNE,26,0.0,0.0,93,0.00,,,0.00,0,weatherlink.com 1.10,2013-06-15 09:43:00,
2013-06-15 04:58:00,62.8,61.0,30.01,NNE,26,0.0,0.0,93,0.00,,,0.00,0,weatherlink.com 1.10,2013-06-15 09:58:00,
2013-06-15 05:13:00,63.0,61.0,30.02,NNE,26,0.0,1.0,93,0.00,,,0.00,0,weatherlink.com 1.10,2013-06-15 10:13:00,
2013-06-15 05:28:00,62.9,61.0,30.01,NNE,26,0.0,0.0,93,0.00,,,0.00,0,weatherlink.com 1.10,2013-06-15 10:28:00,
2013-06-15 05:43:00,62.6,61.0,30.02,NNE,26,0.0,0.0,93,0.00,,,0.00,0,weatherlink.com 1.10,2013-06-15 10:43:00,
2013-06-15 05:58:00,62.9,61.0,30.02,NNE,26,0.0,0.0,93,0.00,,,0.00,9,weatherlink.com 1.10,2013-06-15 10:58:00,
2013-06-15 06:15:00,63.1,61.0,30.03,ESE,116,0.0,1.0,93,0.00,,,0.00,19,weatherlink.com 1.10,2013-06-15 11:15:00,
2013-06-15 06:30:00,63.5,62.0,30.04,ESE,116,0.0,0.0,93,0.00,,,0.00,28,weatherlink.com 1.10,2013-06-15 11:30:00,
2013-06-15 06:45:00,64.2,62.0,30.03,ESE,116,0.0,1.0,92,0.00,,,0.00,98,weatherlink.com 1.10,2013-06-15 11:45:00,
2013-06-15 07:00:00,66.4,64.0,30.04,NE,41,0.0,1.0,90,0.00,,,0.00,148,weatherlink.com 1.10,2013-06-15 12:00:00,
2013-06-15 07:15:00,69.0,64.0,30.04,NW,308,0.0,3.0,83,0.00,,,0.00,197,weatherlink.com 1.10,2013-06-15 12:15:00,
2013-06-15 07:30:00,71.0,64.0,30.05,WNW,303,2.0,3.0,78,0.00,,,0.00,246,weatherlink.com 1.10,2013-06-15 12:30:00,
2013-06-15 07:45:00,72.8,64.0,30.05,East,91,2.0,3.0,75,0.00,,,0.00,295,weatherlink.com 1.10,2013-06-15 12:45:00,
2013-06-15 08:00:00,74.0,64.0,30.05,NE,51,0.0,3.0,72,0.00,,,0.00,346,weatherlink.com 1.10,2013-06-15 13:00:00,
2013-06-15 08:16:00,74.5,64.0,30.06,ESE,105,1.0,5.0,69,0.00,,,0.00,403,weatherlink.com 1.10,2013-06-15 13:16:00,
2013-06-15 08:31:00,75.2,64.0,30.06,ESE,106,1.0,5.0,69,0.00,,,0.00,452,weatherlink.com 1.10,2013-06-15 13:31:00,
2013-06-15 08:46:00,75.8,64.0,30.06,ESE,114,2.0,5.0,68,0.00,,,0.00,499,weatherlink.com 1.10,2013-06-15 13:46:00,
2013-06-15 09:01:00,76.7,64.0,30.06,South,170,1.0,6.0,66,0.00,,,0.00,545,weatherlink.com 1.10,2013-06-15 14:01:00,
2013-06-15 09:17:00,77.4,65.0,30.06,South,175,1.0,6.0,66,0.00,,,0.00,591,weatherlink.com 1.10,2013-06-15 14:17:00,
2013-06-15 09:31:00,78.5,66.0,30.06,South,169,4.0,5.0,65,0.00,,,0.00,631,weatherlink.com 1.10,2013-06-15 14:31:00,
2013-06-15 09:46:00,79.3,64.0,30.06,South,185,4.0,7.0,60,0.00,,,0.00,673,weatherlink.com 1.10,2013-06-15 14:46:00,
2013-06-15 10:02:00,80.0,64.0,30.06,SE,132,2.0,8.0,58,0.00,,,0.00,708,weatherlink.com 1.10,2013-06-15 15:02:00,
2013-06-15 10:18:00,80.8,64.0,30.06,SE,130,3.0,6.0,57,0.00,,,0.00,749,weatherlink.com 1.10,2013-06-15 15:18:00,
2013-06-15 10:33:00,81.6,67.0,30.05,SE,144,0.0,7.0,61,0.00,,,0.00,782,weatherlink.com 1.10,2013-06-15 15:33:00,
2013-06-15 10:48:00,81.6,64.0,30.05,SE,128,0.0,7.0,55,0.00,,,0.00,809,weatherlink.com 1.10,2013-06-15 15:48:00,
2013-06-15 11:03:00,82.5,65.0,30.05,East,91,2.0,7.0,56,0.00,,,0.00,833,weatherlink.com 1.10,2013-06-15 16:03:00,
2013-06-15 11:18:00,83.1,64.0,30.06,SSE,165,6.0,6.0,53,0.00,,,0.00,854,weatherlink.com 1.10,2013-06-15 16:18:00,
2013-06-15 11:33:00,83.1,64.0,30.06,SW,221,0.0,4.0,52,0.00,,,0.00,896,weatherlink.com 1.10,2013-06-15 16:33:00,
2013-06-15 11:48:00,83.1,64.0,30.06,SSE,153,6.0,6.0,53,0.00,,,0.00,837,weatherlink.com 1.10,2013-06-15 16:48:00,
2013-06-15 12:04:00,83.2,64.0,30.05,SW,220,0.0,6.0,53,0.00,,,0.00,923,weatherlink.com 1.10,2013-06-15 17:04:00,
2013-06-15 12:20:00,83.5,64.0,30.05,South,180,4.0,7.0,52,0.00,,,0.00,925,weatherlink.com 1.10,2013-06-15 17:20:00,
2013-06-15 12:35:00,84.2,65.0,30.04,SE,137,3.0,7.0,52,0.00,,,0.00,944,weatherlink.com 1.10,2013-06-15 17:35:00,
2013-06-15 12:50:00,84.5,64.0,30.03,ESE,116,2.0,7.0,50,0.00,,,0.00,882,weatherlink.com 1.10,2013-06-15 17:50:00,
2013-06-15 13:05:00,84.9,65.0,30.03,SSW,193,5.0,11.0,52,0.00,,,0.00,895,weatherlink.com 1.10,2013-06-15 18:05:00,
2013-06-15 13:20:00,84.8,65.0,30.02,SE,124,4.0,7.0,52,0.00,,,0.00,612,weatherlink.com 1.10,2013-06-15 18:20:00,
2013-06-15 13:35:00,85.3,66.0,30.01,SSE,159,3.0,5.0,52,0.00,,,0.00,833,weatherlink.com 1.10,2013-06-15 18:35:00,
2013-06-15 13:50:00,85.8,65.0,30.01,SSW,203,4.0,4.0,50,0.00,,,0.00,879,weatherlink.com 1.10,2013-06-15 18:50:00,
2013-06-15 14:05:00,86.1,65.0,30.02,ESE,103,2.0,7.0,49,0.00,,,0.00,947,weatherlink.com 1.10,2013-06-15 19:05:00,
2013-06-15 14:21:00,86.2,65.0,30.01,ENE,71,0.0,7.0,49,0.00,,,0.00,691,weatherlink.com 1.10,2013-06-15 19:21:00,
2013-06-15 14:36:00,85.7,64.0,30.01,SSE,158,2.0,6.0,49,0.00,,,0.00,478,weatherlink.com 1.10,2013-06-15 19:36:00,
2013-06-15 14:51:00,85.2,64.0,30.00,SSE,158,3.0,5.0,50,0.00,,,0.00,816,weatherlink.com 1.10,2013-06-15 19:51:00,
2013-06-15 15:05:00,86.6,65.0,30.00,SE,133,4.0,8.0,49,0.00,,,0.00,905,weatherlink.com 1.10,2013-06-15 20:05:00,
2013-06-15 15:22:00,86.8,67.0,30.00,SE,124,3.0,6.0,51,0.00,,,0.00,427,weatherlink.com 1.10,2013-06-15 20:22:00,
2013-06-15 15:36:00,86.6,65.0,30.00,SE,145,3.0,5.0,49,0.00,,,0.00,707,weatherlink.com 1.10,2013-06-15 20:36:00,
2013-06-15 15:52:00,86.5,65.0,30.00,South,173,4.0,7.0,49,0.00,,,0.00,694,weatherlink.com 1.10,2013-06-15 20:52:00,
2013-06-15 16:07:00,87.1,65.0,29.99,SSW,195,4.0,7.0,48,0.00,,,0.00,740,weatherlink.com 1.10,2013-06-15 21:07:00,
2013-06-15 16:21:00,87.5,65.0,29.98,SSW,204,1.0,7.0,48,0.00,,,0.00,657,weatherlink.com 1.10,2013-06-15 21:21:00,
2013-06-15 16:36:00,87.5,64.0,29.98,SSE,152,3.0,8.0,46,0.00,,,0.00,587,weatherlink.com 1.10,2013-06-15 21:36:00,
2013-06-15 16:51:00,87.2,66.0,29.97,SSW,200,3.0,6.0,50,0.00,,,0.00,533,weatherlink.com 1.10,2013-06-15 21:51:00,
2013-06-15 17:08:00,87.3,66.0,29.96,SSE,161,4.0,7.0,49,0.00,,,0.00,482,weatherlink.com 1.10,2013-06-15 22:08:00,
2013-06-15 17:23:00,86.7,66.0,29.96,SSW,193,3.0,8.0,51,0.00,,,0.00,436,weatherlink.com 1.10,2013-06-15 22:23:00,
2013-06-15 17:38:00,86.7,64.0,29.96,South,176,5.0,7.0,47,0.00,,,0.00,394,weatherlink.com 1.10,2013-06-15 22:38:00,
2013-06-15 17:53:00,86.6,65.0,29.96,South,172,3.0,8.0,49,0.00,,,0.00,352,weatherlink.com 1.10,2013-06-15 22:53:00,
2013-06-15 18:08:00,86.7,65.0,29.97,SSW,205,4.0,7.0,49,0.00,,,0.00,316,weatherlink.com 1.10,2013-06-15 23:08:00,
2013-06-15 18:23:00,86.2,65.0,29.97,SSE,163,4.0,8.0,50,0.00,,,0.00,262,weatherlink.com 1.10,2013-06-15 23:23:00,
2013-06-15 18:38:00,86.2,65.0,29.98,SE,145,3.0,5.0,49,0.00,,,0.00,220,weatherlink.com 1.10,2013-06-15 23:38:00,
2013-06-15 18:54:00,85.7,65.0,29.97,SSE,147,5.0,8.0,51,0.00,,,0.00,139,weatherlink.com 1.10,2013-06-15 23:54:00,
2013-06-15 19:08:00,84.9,66.0,29.98,SE,137,4.0,6.0,54,0.00,,,0.00,49,weatherlink.com 1.10,2013-06-16 00:08:00,
2013-06-15 19:25:00,83.6,67.0,29.97,SE,141,0.0,3.0,57,0.00,,,0.00,28,weatherlink.com 1.10,2013-06-16 00:25:00,
2013-06-15 19:40:00,82.5,67.0,29.98,South,175,0.0,2.0,60,0.00,,,0.00,25,weatherlink.com 1.10,2013-06-16 00:40:00,
2013-06-15 19:54:00,81.7,68.0,29.98,South,175,0.0,1.0,63,0.00,,,0.00,14,weatherlink.com 1.10,2013-06-16 00:54:00,
2013-06-15 20:10:00,80.4,68.0,29.98,South,175,1.0,1.0,66,0.00,,,0.00,0,weatherlink.com 1.10,2013-06-16 01:10:00,
2013-06-15 20:25:00,79.3,67.0,29.97,South,174,0.0,1.0,67,0.00,,,0.00,0,weatherlink.com 1.10,2013-06-16 01:25:00,
2013-06-15 20:40:00,78.3,67.0,29.97,SSE,162,0.0,1.0,69,0.00,,,0.00,0,weatherlink.com 1.10,2013-06-16 01:40:00,
2013-06-15 20:55:00,77.4,67.0,29.98,SSE,162,0.0,0.0,71,0.00,,,0.00,0,weatherlink.com 1.10,2013-06-16 01:55:00,
2013-06-15 21:10:00,76.3,67.0,29.98,SSE,162,0.0,0.0,73,0.00,,,0.00,0,weatherlink.com 1.10,2013-06-16 02:10:00,
2013-06-15 21:28:00,75.8,67.0,29.99,SSE,162,0.0,1.0,75,0.00,,,0.00,0,weatherlink.com 1.10,2013-06-16 02:28:00,
2013-06-15 21:40:00,75.1,67.0,29.99,SSE,162,0.0,0.0,76,0.00,,,0.00,0,weatherlink.com 1.10,2013-06-16 02:40:00,
2013-06-15 21:55:00,74.4,68.0,30.00,SSE,162,0.0,0.0,79,0.00,,,0.00,0,weatherlink.com 1.10,2013-06-16 02:55:00,
2013-06-15 22:10:00,73.8,67.0,30.01,SSE,162,0.0,0.0,80,0.00,,,0.00,0,weatherlink.com 1.10,2013-06-16 03:10:00,
2013-06-15 22:25:00,73.8,68.0,30.01,SSE,162,0.0,1.0,81,0.00,,,0.00,0,weatherlink.com 1.10,2013-06-16 03:25:00,
2013-06-15 22:40:00,73.9,68.0,30.01,SSE,162,0.0,1.0,81,0.00,,,0.00,0,weatherlink.com 1.10,2013-06-16 03:40:00,
2013-06-15 22:55:00,73.8,68.0,30.01,SSE,162,0.0,0.0,81,0.00,,,0.00,0,weatherlink.com 1.10,2013-06-16 03:55:00,
2013-06-15 23:10:00,73.6,68.0,30.01,SSE,162,0.0,0.0,82,0.00,,,0.00,0,weatherlink.com 1.10,2013-06-16 04:10:00,
2013-06-15 23:25:00,73.3,68.0,30.01,SSE,162,0.0,1.0,82,0.00,,,0.00,0,weatherlink.com 1.10,2013-06-16 04:25:00,
2013-06-15 23:40:00,73.1,67.0,30.01,SSE,162,0.0,0.0,82,0.00,,,0.00,0,weatherlink.com 1.10,2013-06-16 04:40:00,
2013-06-15 23:55:00,73.0,67.0,30.00,SSE,162,0.0,2.0,82,0.00,,,0.00,0,weatherlink.com 1.10,2013-06-16 04:55:00,